Time;durP1;ratioP1;P1;durP2;ratioP2;P2;SDS_P1;SDS_P2;PMS_P1;PMS_P2;Temp;Humidity;BMP_temperature;BMP_pressure;BME280_temperature;BME280_humidity;BME280_pressure;Samples;Min_cycle;Max_cycle;Signal;HPM_P1;HPM_P2
2021/06/29 00:04:08;;;;;;;6.82;5.70;;;;;;;;;;5133747;28;20446;-86
2021/06/29 02:25:36;;;;;;;7.93;7.18;;;;;;;;;;5032146;28;20696;-88
2021/06/29 02:31:59;;;;;;;7.05;6.47;;;;;;;;;;4992483;28;20436;-88
2021/06/29 02:38:07;;;;;;;8.35;7.65;;;;;;;;;;4953690;29;20397;-88
2021/06/29 02:44:34;;;;;;;7.63;6.93;;;;;;;;;;4896395;29;20449;-87
2021/06/29 02:47:39;;;;;;;8.02;7.32;;;;;;;;;;4923347;29;20469;-88
2021/06/29 03:00:07;;;;;;;25.52;9.05;;;;;;;;;;4877527;29;20366;-88
2021/06/29 03:12:21;;;;;;;8.55;7.47;;;;;;;;;;4858494;29;20397;-87
2021/06/29 03:19:06;;;;;;;8.13;7.47;;;;;;;;;;4820850;29;20394;-89
2021/06/29 03:25:31;;;;;;;8.68;7.88;;;;;;;;;;4768448;30;20389;-88
2021/06/29 03:35:07;;;;;;;8.45;6.97;;;;;;;;;;4733246;30;20416;-89
2021/06/29 03:38:30;;;;;;;22.17;8.50;;;;;;;;;;4752715;30;20399;-88
2021/06/29 03:44:57;;;;;;;38.37;10.80;;;;;;;;;;4767836;30;20376;-88
2021/06/29 03:48:11;;;;;;;10.53;7.07;;;;;;;;;;4785882;29;20774;-88
2021/06/29 03:51:31;;;;;;;22.40;8.63;;;;;;;;;;4832181;29;20395;-88
2021/06/29 03:54:47;;;;;;;18.77;8.77;;;;;;;;;;4824749;29;20416;-88
2021/06/29 04:04:33;;;;;;;16.25;9.20;;;;;;;;;;4996392;28;20457;-88
2021/06/29 04:07:01;;;;;;;10.67;8.13;;;;;;;;;;4978593;28;20409;-88
2021/06/29 04:09:27;;;;;;;8.93;7.85;;;;;;;;;;5076414;27;20435;-88
2021/06/29 04:18:00;;;;;;;16.38;9.85;;;;;;;;;;5136522;27;20360;-88
2021/06/29 04:20:26;;;;;;;17.77;10.13;;;;;;;;;;5133410;27;20361;-87
2021/06/29 04:35:48;;;;;;;10.50;9.45;;;;;;;;;;5073461;28;20385;-87
2021/06/29 04:38:54;;;;;;;10.95;9.95;;;;;;;;;;5012899;28;20363;-87
2021/06/29 04:41:56;;;;;;;10.93;9.88;;;;;;;;;;5076737;28;20364;-89
2021/06/29 04:57:29;;;;;;;10.77;9.88;;;;;;;;;;4975072;28;20470;-86
2021/06/29 05:00:33;;;;;;;11.93;10.75;;;;;;;;;;5033390;28;20366;-88
2021/06/29 05:03:47;;;;;;;10.85;9.85;;;;;;;;;;5011895;28;20376;-86
2021/06/29 05:07:12;;;;;;;12.00;10.90;;;;;;;;;;5034654;28;20358;-88
2021/06/29 05:09:42;;;;;;;12.32;10.27;;;;;;;;;;4992882;28;20495;-86
2021/06/29 05:12:36;;;;;;;11.93;10.80;;;;;;;;;;4993156;28;20373;-86
2021/06/29 05:15:44;;;;;;;13.40;10.70;;;;;;;;;;5089159;28;20352;-86
2021/06/29 05:18:31;;;;;;;14.73;10.30;;;;;;;;;;5112607;28;20465;-85
2021/06/29 05:21:18;;;;;;;12.00;10.90;;;;;;;;;;5111249;27;20365;-87
2021/06/29 05:23:59;;;;;;;24.00;11.27;;;;;;;;;;5134922;27;20863;-86
2021/06/29 05:26:25;;;;;;;11.30;10.05;;;;;;;;;;5134337;27;20369;-86
2021/06/29 05:28:51;;;;;;;12.50;10.60;;;;;;;;;;5133255;27;20403;-87
2021/06/29 05:31:17;;;;;;;11.43;10.23;;;;;;;;;;5133847;27;20835;-85
2021/06/29 05:33:45;;;;;;;13.02;10.88;;;;;;;;;;5134443;27;20353;-86
2021/06/29 05:36:11;;;;;;;13.80;10.73;;;;;;;;;;5135831;27;20364;-86
2021/06/29 05:38:38;;;;;;;11.37;10.30;;;;;;;;;;5134645;27;20863;-86
2021/06/29 05:41:04;;;;;;;12.27;10.60;;;;;;;;;;5135782;27;20475;-86
2021/06/29 05:43:33;;;;;;;11.85;10.75;;;;;;;;;;5136408;27;20396;-85
2021/06/29 05:45:59;;;;;;;12.55;11.00;;;;;;;;;;5134438;27;20472;-86
2021/06/29 05:48:35;;;;;;;12.70;11.38;;;;;;;;;;5136312;27;20480;-87
2021/06/29 05:51:01;;;;;;;13.20;11.17;;;;;;;;;;5137633;27;20365;-86
2021/06/29 05:54:08;;;;;;;13.50;11.45;;;;;;;;;;5111479;27;20369;-87
2021/06/29 06:30:28;;;;;;;11.75;10.73;;;;;;;;;;5073757;28;20345;-87
2021/06/29 06:39:03;;;;;;;11.75;10.60;;;;;;;;;;5042037;28;20466;-87
2021/06/29 06:47:38;;;;;;;11.65;10.55;;;;;;;;;;5072955;28;20459;-89
2021/06/29 06:50:24;;;;;;;11.88;10.80;;;;;;;;;;5113146;28;20439;-90
2021/06/29 06:52:51;;;;;;;11.40;10.23;;;;;;;;;;5096938;28;20383;-85
2021/06/29 06:58:41;;;;;;;11.60;10.43;;;;;;;;;;5135758;27;20480;-89
2021/06/29 07:07:37;;;;;;;10.32;9.23;;;;;;;;;;5135184;27;20495;-88
2021/06/29 07:13:13;;;;;;;9.50;8.20;;;;;;;;;;5134819;27;20344;-87
2021/06/29 07:16:09;;;;;;;9.43;8.63;;;;;;;;;;5132566;27;20480;-88
2021/06/29 07:22:15;;;;;;;14.93;9.10;;;;;;;;;;5071812;28;20388;-88
2021/06/29 07:34:26;;;;;;;8.98;8.20;;;;;;;;;;5072299;28;20847;-92
2021/06/29 07:40:11;;;;;;;8.32;7.57;;;;;;;;;;5072896;28;20748;-92
2021/06/29 07:42:37;;;;;;;9.63;8.45;;;;;;;;;;5091964;28;20522;-89
2021/06/29 07:45:06;;;;;;;9.88;8.70;;;;;;;;;;5131503;28;20893;-89
2021/06/29 07:50:39;;;;;;;9.23;8.40;;;;;;;;;;5136005;28;20842;-86
2021/06/29 08:11:58;;;;;;;10.95;8.20;;;;;;;;;;5125663;28;20372;-92
2021/06/29 08:14:39;;;;;;;10.00;8.20;;;;;;;;;;5134065;28;20397;-88
2021/06/29 08:17:06;;;;;;;8.13;7.40;;;;;;;;;;5130923;28;20813;-88
2021/06/29 08:19:56;;;;;;;14.23;8.35;;;;;;;;;;5134081;28;20369;-90
2021/06/29 08:22:43;;;;;;;12.05;7.85;;;;;;;;;;5134463;28;20455;-91
2021/06/29 08:25:29;;;;;;;8.15;7.45;;;;;;;;;;5131390;28;20387;-87
2021/06/29 08:27:55;;;;;;;10.70;7.90;;;;;;;;;;5128997;28;20442;-88
2021/06/29 08:30:22;;;;;;;10.60;7.57;;;;;;;;;;5129938;28;20432;-87
2021/06/29 08:32:58;;;;;;;11.20;7.82;;;;;;;;;;5130805;28;20384;-89
2021/06/29 08:35:25;;;;;;;9.20;7.80;;;;;;;;;;5129920;28;20991;-91
2021/06/29 08:37:51;;;;;;;8.70;7.90;;;;;;;;;;5131302;28;20365;-88
2021/06/29 08:40:17;;;;;;;8.40;7.70;;;;;;;;;;5131725;28;20387;-87
2021/06/29 08:42:59;;;;;;;8.93;8.10;;;;;;;;;;5129211;28;20354;-87
2021/06/29 08:45:25;;;;;;;8.52;7.72;;;;;;;;;;5109383;28;20412;-89
2021/06/29 08:57:31;;;;;;;9.20;7.63;;;;;;;;;;5114204;28;20358;-89
2021/06/29 09:00:17;;;;;;;8.35;7.15;;;;;;;;;;5091464;28;21137;-85
2021/06/29 09:02:58;;;;;;;8.25;7.55;;;;;;;;;;5113489;28;20382;-89
2021/06/29 09:05:28;;;;;;;8.45;7.55;;;;;;;;;;5133412;27;20440;-86
2021/06/29 09:08:02;;;;;;;8.75;7.95;;;;;;;;;;5133546;27;20412;-88
2021/06/29 09:10:31;;;;;;;9.10;8.27;;;;;;;;;;5134930;27;20377;-88
2021/06/29 09:13:02;;;;;;;9.10;8.17;;;;;;;;;;5135331;27;20920;-87
2021/06/29 09:15:38;;;;;;;8.68;7.45;;;;;;;;;;5134030;27;20369;-87
2021/06/29 09:18:07;;;;;;;8.00;7.30;;;;;;;;;;5132985;27;20392;-89
2021/06/29 09:20:38;;;;;;;9.60;8.00;;;;;;;;;;5133661;27;20373;-89
2021/06/29 09:23:12;;;;;;;10.15;7.50;;;;;;;;;;5125719;27;20364;-85
2021/06/29 09:25:39;;;;;;;8.47;7.57;;;;;;;;;;5133503;27;20373;-87
2021/06/29 09:28:05;;;;;;;8.88;7.50;;;;;;;;;;5131942;27;20385;-88
2021/06/29 09:30:36;;;;;;;8.15;7.38;;;;;;;;;;5133178;27;20365;-86
2021/06/29 09:33:04;;;;;;;8.65;7.75;;;;;;;;;;5121851;27;20373;-88
2021/06/29 09:35:30;;;;;;;84.15;13.15;;;;;;;;;;5118846;27;20406;-87
2021/06/29 09:37:57;;;;;;;10.65;7.60;;;;;;;;;;5131334;27;20915;-90
2021/06/29 09:40:44;;;;;;;8.60;7.68;;;;;;;;;;5134306;27;20456;-88
2021/06/29 09:43:17;;;;;;;9.60;8.27;;;;;;;;;;5121259;27;20365;-87
2021/06/29 09:45:47;;;;;;;13.50;8.38;;;;;;;;;;5114270;27;20369;-86
2021/06/29 09:48:22;;;;;;;17.52;8.48;;;;;;;;;;5129540;27;20385;-87
2021/06/29 09:50:50;;;;;;;11.85;8.38;;;;;;;;;;5131911;27;20368;-87
2021/06/29 09:53:30;;;;;;;12.75;8.27;;;;;;;;;;5131468;27;20717;-88
2021/06/29 09:56:01;;;;;;;12.85;8.50;;;;;;;;;;5123292;27;20510;-90
2021/06/29 09:58:40;;;;;;;10.55;7.75;;;;;;;;;;5134658;27;20831;-90
2021/06/29 10:01:07;;;;;;;13.43;7.88;;;;;;;;;;5153396;27;20374;-86
2021/06/29 10:03:43;;;;;;;10.30;8.02;;;;;;;;;;5135444;27;20426;-89
2021/06/29 10:06:12;;;;;;;10.57;7.65;;;;;;;;;;5112592;28;20718;-85
2021/06/29 10:08:41;;;;;;;11.17;8.73;;;;;;;;;;5130975;27;20454;-87
2021/06/29 10:11:22;;;;;;;8.77;7.95;;;;;;;;;;5131831;27;20377;-86
2021/06/29 10:13:51;;;;;;;8.68;7.97;;;;;;;;;;5113438;27;20369;-87
2021/06/29 10:16:21;;;;;;;10.20;8.02;;;;;;;;;;5130465;27;20375;-89
2021/06/29 10:21:23;;;;;;;8.63;7.82;;;;;;;;;;5133049;27;20735;-88
2021/06/29 10:24:22;;;;;;;8.77;7.72;;;;;;;;;;5132087;27;20886;-90
2021/06/29 10:26:49;;;;;;;10.10;8.15;;;;;;;;;;5090031;27;20931;-87
2021/06/29 10:29:16;;;;;;;8.30;7.47;;;;;;;;;;5120866;27;20372;-86
2021/06/29 10:31:43;;;;;;;12.43;8.00;;;;;;;;;;5129868;27;20384;-88
2021/06/29 10:34:11;;;;;;;12.67;8.70;;;;;;;;;;5131793;27;20847;-88
2021/06/29 10:36:39;;;;;;;13.02;8.73;;;;;;;;;;5128673;27;20373;-87
2021/06/29 10:39:08;;;;;;;9.87;8.37;;;;;;;;;;5132701;27;20369;-88
2021/06/29 10:41:35;;;;;;;12.40;7.90;;;;;;;;;;5133308;27;20367;-88
2021/06/29 10:44:02;;;;;;;8.50;7.70;;;;;;;;;;5131586;27;20373;-90
2021/06/29 10:46:31;;;;;;;9.10;8.25;;;;;;;;;;5131665;27;20361;-88
2021/06/29 10:48:57;;;;;;;10.00;8.02;;;;;;;;;;5298934;22;20430;-91
2021/06/29 10:51:37;;;;;;;8.88;7.60;;;;;;;;;;5080674;28;20389;-89
2021/06/29 10:54:03;;;;;;;9.55;8.00;;;;;;;;;;5071642;28;20483;-90
2021/06/29 10:56:49;;;;;;;8.38;7.60;;;;;;;;;;5074923;28;20442;-86
2021/06/29 10:59:16;;;;;;;8.02;7.32;;;;;;;;;;5087339;28;20425;-92
2021/06/29 11:01:54;;;;;;;9.80;7.85;;;;;;;;;;5088801;28;20445;-90
2021/06/29 11:04:41;;;;;;;9.68;7.50;;;;;;;;;;5087203;28;20384;-89
2021/06/29 11:07:25;;;;;;;9.23;7.43;;;;;;;;;;5081408;28;20385;-91
2021/06/29 11:10:07;;;;;;;10.17;7.10;;;;;;;;;;5067739;28;20382;-90
2021/06/29 11:12:39;;;;;;;11.48;7.25;;;;;;;;;;5069375;28;20409;-88
2021/06/29 11:15:10;;;;;;;9.30;6.72;;;;;;;;;;5075821;28;20383;-91
2021/06/29 11:18:00;;;;;;;10.73;7.10;;;;;;;;;;5077434;28;20378;-90
2021/06/29 11:20:27;;;;;;;15.55;6.95;;;;;;;;;;5059630;28;20416;-90
2021/06/29 11:22:58;;;;;;;10.65;5.95;;;;;;;;;;5077601;28;20410;-88
2021/06/29 11:25:31;;;;;;;8.32;6.28;;;;;;;;;;5079462;28;20771;-90
2021/06/29 11:28:18;;;;;;;8.88;6.40;;;;;;;;;;5078529;28;20412;-89
2021/06/29 11:31:03;;;;;;;7.30;6.70;;;;;;;;;;5096049;28;20522;-91
2021/06/29 11:33:32;;;;;;;10.02;6.07;;;;;;;;;;5096583;28;20369;-90
2021/06/29 11:36:00;;;;;;;7.88;6.22;;;;;;;;;;5077473;28;20386;-89
2021/06/29 11:38:37;;;;;;;7.10;6.05;;;;;;;;;;5077645;28;20726;-89
2021/06/29 11:41:38;;;;;;;6.90;6.20;;;;;;;;;;5096657;28;20761;-91
2021/06/29 11:44:07;;;;;;;6.60;5.70;;;;;;;;;;5010890;28;20701;-89
2021/06/29 11:46:52;;;;;;;6.38;5.78;;;;;;;;;;5071229;28;20413;-88
2021/06/29 11:49:26;;;;;;;7.25;6.43;;;;;;;;;;5073930;28;20412;-91
2021/06/29 11:51:59;;;;;;;6.90;5.97;;;;;;;;;;5078958;28;20380;-89
2021/06/29 11:54:27;;;;;;;7.60;5.97;;;;;;;;;;5077979;28;20384;-88
2021/06/29 11:56:57;;;;;;;6.53;5.93;;;;;;;;;;5078394;28;20378;-92
2021/06/29 11:59:29;;;;;;;8.77;6.07;;;;;;;;;;5074201;28;20392;-90
2021/06/29 12:02:22;;;;;;;6.60;5.90;;;;;;;;;;5095027;28;20467;-90
2021/06/29 12:04:55;;;;;;;8.17;5.90;;;;;;;;;;5078601;28;20389;-89
2021/06/29 12:08:19;;;;;;;10.43;6.13;;;;;;;;;;5080132;28;20885;-88
2021/06/29 12:10:39;;;;;;;6.78;6.07;;;;;;;;;;5076889;28;20372;-87
2021/06/29 12:13:09;;;;;;;7.15;6.00;;;;;;;;;;5080510;28;20417;-92
2021/06/29 12:15:45;;;;;;;8.18;5.97;;;;;;;;;;5080305;28;20384;-90
2021/06/29 12:18:14;;;;;;;7.50;6.70;;;;;;;;;;5076976;28;20382;-90
2021/06/29 12:20:43;;;;;;;8.18;6.20;;;;;;;;;;5080090;28;20392;-90
2021/06/29 12:23:10;;;;;;;7.90;6.03;;;;;;;;;;5081238;28;20405;-90
2021/06/29 12:25:38;;;;;;;8.50;7.65;;;;;;;;;;5085730;28;20388;-88
2021/06/29 12:28:08;;;;;;;8.65;6.47;;;;;;;;;;5086553;28;20404;-90
2021/06/29 12:30:36;;;;;;;6.73;6.13;;;;;;;;;;5086072;28;20382;-88
2021/06/29 12:33:12;;;;;;;6.43;5.82;;;;;;;;;;5084866;28;20377;-88
2021/06/29 12:35:38;;;;;;;7.50;5.30;;;;;;;;;;5064333;28;20378;-88
2021/06/29 12:38:06;;;;;;;10.98;4.72;;;;;;;;;;5080652;28;20977;-89
2021/06/29 12:40:39;;;;;;;7.20;5.32;;;;;;;;;;5096037;28;20380;-89
2021/06/29 12:43:19;;;;;;;9.98;5.43;;;;;;;;;;5083960;28;20387;-89
2021/06/29 12:45:45;;;;;;;8.38;4.85;;;;;;;;;;5081110;28;20382;-90
2021/06/29 12:48:11;;;;;;;7.00;4.80;;;;;;;;;;5085100;28;20617;-90
2021/06/29 12:50:38;;;;;;;5.47;4.88;;;;;;;;;;5094479;28;20415;-90
2021/06/29 12:53:06;;;;;;;5.32;4.75;;;;;;;;;;5096458;28;20380;-93
2021/06/29 12:55:32;;;;;;;10.20;4.93;;;;;;;;;;5094318;28;20376;-87
2021/06/29 12:58:01;;;;;;;5.50;4.85;;;;;;;;;;5094730;28;20869;-88
2021/06/29 13:00:28;;;;;;;7.30;5.38;;;;;;;;;;5090485;28;20395;-87
2021/06/29 13:02:54;;;;;;;8.73;5.60;;;;;;;;;;5086066;28;20437;-91
2021/06/29 13:05:28;;;;;;;5.45;4.93;;;;;;;;;;5079982;28;20989;-90
2021/06/29 13:08:07;;;;;;;6.68;6.00;;;;;;;;;;5078216;28;20393;-89
2021/06/29 13:10:36;;;;;;;7.38;5.13;;;;;;;;;;5079891;28;20755;-88
2021/06/29 13:13:19;;;;;;;5.50;4.80;;;;;;;;;;5083051;28;21139;-92
2021/06/29 13:15:46;;;;;;;5.80;5.20;;;;;;;;;;5075962;28;21056;-88
2021/06/29 13:18:31;;;;;;;7.03;5.47;;;;;;;;;;5083075;28;20498;-91
2021/06/29 13:20:58;;;;;;;8.13;5.43;;;;;;;;;;5077748;28;20417;-89
2021/06/29 13:23:26;;;;;;;11.10;5.57;;;;;;;;;;5080951;28;20372;-90
2021/06/29 13:26:06;;;;;;;6.65;5.85;;;;;;;;;;5091382;28;20492;-91
2021/06/29 13:28:32;;;;;;;6.80;5.68;;;;;;;;;;5085796;28;20396;-92
2021/06/29 13:31:09;;;;;;;7.88;6.47;;;;;;;;;;5084909;28;20392;-89
2021/06/29 13:33:39;;;;;;;9.90;6.70;;;;;;;;;;5095971;28;20488;-90
2021/06/29 13:36:07;;;;;;;10.55;6.10;;;;;;;;;;5081268;28;20463;-89
2021/06/29 13:38:34;;;;;;;7.60;6.30;;;;;;;;;;5081150;28;20410;-92
2021/06/29 13:41:01;;;;;;;12.93;6.40;;;;;;;;;;5084040;28;20432;-90
2021/06/29 13:43:35;;;;;;;8.32;6.47;;;;;;;;;;5085231;28;20375;-90
2021/06/29 13:46:17;;;;;;;7.35;6.43;;;;;;;;;;5083903;28;20395;-92
2021/06/29 13:48:43;;;;;;;8.23;6.38;;;;;;;;;;5082942;28;20386;-90
2021/06/29 13:51:26;;;;;;;7.00;6.22;;;;;;;;;;5081588;28;20432;-91
2021/06/29 13:53:53;;;;;;;9.95;6.57;;;;;;;;;;5088306;28;20877;-91
2021/06/29 13:56:37;;;;;;;7.82;5.93;;;;;;;;;;5086834;28;20366;-89
2021/06/29 13:59:05;;;;;;;8.85;5.93;;;;;;;;;;5087209;28;20400;-92
2021/06/29 14:01:34;;;;;;;6.40;5.78;;;;;;;;;;5088600;28;20402;-92
2021/06/29 14:04:01;;;;;;;9.07;6.45;;;;;;;;;;5088103;28;20376;-93
2021/06/29 14:06:27;;;;;;;10.18;6.10;;;;;;;;;;5082102;28;20386;-90
2021/06/29 14:09:08;;;;;;;10.73;6.00;;;;;;;;;;5084328;28;20404;-92
2021/06/29 14:11:38;;;;;;;10.20;5.80;;;;;;;;;;5078098;28;20387;-89
2021/06/29 14:14:04;;;;;;;8.85;5.68;;;;;;;;;;5072993;28;20947;-92
2021/06/29 14:16:31;;;;;;;6.60;5.75;;;;;;;;;;5072425;28;20406;-90
2021/06/29 14:19:24;;;;;;;6.20;5.60;;;;;;;;;;5072152;28;20470;-92
2021/06/29 14:21:56;;;;;;;7.80;5.22;;;;;;;;;;5072228;28;20930;-91
2021/06/29 14:24:22;;;;;;;7.80;5.55;;;;;;;;;;5074209;28;20382;-91
2021/06/29 14:26:57;;;;;;;8.43;5.53;;;;;;;;;;5072439;28;20962;-89
2021/06/29 14:29:25;;;;;;;6.47;5.65;;;;;;;;;;5071191;28;20378;-89
2021/06/29 14:31:54;;;;;;;7.47;5.83;;;;;;;;;;5073355;28;20445;-92
2021/06/29 14:34:20;;;;;;;6.25;5.60;;;;;;;;;;5101232;28;20392;-92
2021/06/29 14:36:58;;;;;;;7.38;5.60;;;;;;;;;;5092634;28;20742;-91
2021/06/29 14:39:24;;;;;;;6.03;5.18;;;;;;;;;;5073913;28;20392;-89
2021/06/29 14:41:50;;;;;;;7.45;5.60;;;;;;;;;;5075489;28;20438;-88
2021/06/29 14:44:18;;;;;;;6.05;5.07;;;;;;;;;;5081437;28;21427;-88
2021/06/29 14:46:45;;;;;;;5.60;5.10;;;;;;;;;;5091399;28;20377;-92
2021/06/29 14:49:19;;;;;;;8.13;5.22;;;;;;;;;;5090628;28;20861;-92
2021/06/29 14:51:48;;;;;;;5.30;4.80;;;;;;;;;;5091847;28;20387;-93
2021/06/29 14:54:16;;;;;;;7.15;4.70;;;;;;;;;;5091539;28;20479;-91
2021/06/29 14:56:42;;;;;;;6.03;5.38;;;;;;;;;;5091961;28;20385;-90
2021/06/29 14:59:08;;;;;;;7.00;5.18;;;;;;;;;;5083117;28;20424;-89
2021/06/29 15:01:34;;;;;;;6.78;5.40;;;;;;;;;;5082211;28;20373;-90
2021/06/29 15:04:02;;;;;;;5.45;4.80;;;;;;;;;;5081679;28;20883;-89
2021/06/29 15:06:28;;;;;;;6.18;4.95;;;;;;;;;;5078660;28;20386;-92
2021/06/29 15:08:56;;;;;;;5.30;4.78;;;;;;;;;;5082448;28;20785;-90
2021/06/29 15:11:27;;;;;;;6.50;5.22;;;;;;;;;;5081545;28;20382;-93
2021/06/29 15:13:53;;;;;;;11.30;5.50;;;;;;;;;;5079077;28;20780;-89
2021/06/29 15:16:20;;;;;;;11.60;6.15;;;;;;;;;;5080594;28;21137;-90
2021/06/29 15:18:46;;;;;;;9.95;5.70;;;;;;;;;;5079929;28;20485;-88
2021/06/29 15:21:14;;;;;;;7.18;6.32;;;;;;;;;;5082509;28;20412;-92
2021/06/29 15:23:40;;;;;;;7.72;6.90;;;;;;;;;;5081898;28;20408;-89
2021/06/29 15:26:12;;;;;;;6.68;6.05;;;;;;;;;;5083094;28;20415;-91
2021/06/29 15:28:38;;;;;;;6.80;6.10;;;;;;;;;;5080898;28;20377;-88
2021/06/29 15:31:04;;;;;;;7.70;7.00;;;;;;;;;;5081765;28;20872;-91
2021/06/29 15:33:30;;;;;;;10.10;6.88;;;;;;;;;;5081312;28;20447;-90
2021/06/29 15:35:59;;;;;;;7.10;6.43;;;;;;;;;;5080419;28;20384;-91
2021/06/29 15:38:25;;;;;;;7.18;6.40;;;;;;;;;;5082913;28;20407;-91
2021/06/29 15:40:51;;;;;;;6.93;6.23;;;;;;;;;;5091988;28;20372;-90
2021/06/29 15:43:17;;;;;;;6.85;6.18;;;;;;;;;;5084706;28;20360;-91
2021/06/29 15:45:46;;;;;;;6.85;6.15;;;;;;;;;;5081507;28;20436;-93
2021/06/29 15:48:12;;;;;;;7.38;6.68;;;;;;;;;;5079894;28;20396;-90
2021/06/29 15:50:42;;;;;;;7.60;6.90;;;;;;;;;;5080458;28;20382;-91
2021/06/29 15:53:08;;;;;;;7.63;6.82;;;;;;;;;;5095039;28;20364;-89
2021/06/29 15:55:34;;;;;;;7.17;6.57;;;;;;;;;;5081415;28;20799;-88
2021/06/29 15:58:01;;;;;;;8.60;7.03;;;;;;;;;;5084741;28;20440;-91
2021/06/29 16:00:53;;;;;;;7.80;7.10;;;;;;;;;;5082581;28;20374;-90
2021/06/29 16:03:48;;;;;;;9.75;6.85;;;;;;;;;;5102488;28;20412;-92
2021/06/29 16:06:14;;;;;;;9.75;6.40;;;;;;;;;;5087575;28;20409;-93
2021/06/29 16:08:40;;;;;;;7.90;7.10;;;;;;;;;;5086375;28;20389;-90
2021/06/29 16:11:06;;;;;;;7.68;6.43;;;;;;;;;;5085591;28;20472;-91
2021/06/29 16:13:32;;;;;;;7.22;6.60;;;;;;;;;;5084391;28;20366;-91
2021/06/29 16:15:59;;;;;;;6.63;6.10;;;;;;;;;;5086215;28;20382;-90
2021/06/29 16:18:30;;;;;;;7.60;6.80;;;;;;;;;;5091531;28;20404;-89
2021/06/29 16:20:59;;;;;;;7.05;6.32;;;;;;;;;;5095568;28;20484;-92
2021/06/29 16:23:25;;;;;;;7.90;7.10;;;;;;;;;;5095651;28;20393;-91
2021/06/29 16:25:51;;;;;;;6.80;6.20;;;;;;;;;;5088638;28;20386;-91
2021/06/29 16:28:17;;;;;;;7.90;7.03;;;;;;;;;;5086125;28;20379;-92
2021/06/29 16:30:46;;;;;;;7.35;6.65;;;;;;;;;;5083530;28;20385;-88
2021/06/29 16:33:15;;;;;;;8.10;6.28;;;;;;;;;;5085620;28;20465;-90
2021/06/29 16:35:41;;;;;;;8.27;7.47;;;;;;;;;;5083926;28;20932;-88
2021/06/29 16:38:10;;;;;;;7.65;6.95;;;;;;;;;;5082898;28;20419;-90
2021/06/29 16:40:36;;;;;;;8.57;7.47;;;;;;;;;;5080637;28;20785;-90
2021/06/29 16:43:04;;;;;;;7.78;7.00;;;;;;;;;;5083645;28;20522;-90
2021/06/29 16:45:30;;;;;;;7.82;7.13;;;;;;;;;;5086454;28;20391;-89
2021/06/29 16:47:58;;;;;;;8.60;7.45;;;;;;;;;;5083652;28;20372;-90
2021/06/29 16:50:24;;;;;;;8.00;7.30;;;;;;;;;;5083815;28;20389;-90
2021/06/29 16:52:56;;;;;;;7.70;7.00;;;;;;;;;;5080403;28;20873;-89
2021/06/29 16:55:32;;;;;;;7.53;6.93;;;;;;;;;;5111622;28;20457;-90
2021/06/29 16:57:58;;;;;;;7.90;7.10;;;;;;;;;;5111551;28;20908;-89
2021/06/29 17:00:27;;;;;;;7.70;6.90;;;;;;;;;;5107976;28;20374;-91
2021/06/29 17:02:53;;;;;;;7.25;6.55;;;;;;;;;;5085972;28;20415;-90
2021/06/29 17:05:25;;;;;;;7.10;6.37;;;;;;;;;;5084961;28;20392;-92
2021/06/29 17:07:52;;;;;;;8.65;6.30;;;;;;;;;;5086702;28;20388;-90
2021/06/29 17:10:18;;;;;;;7.40;6.70;;;;;;;;;;5080140;28;20390;-91
2021/06/29 17:12:53;;;;;;;8.27;7.40;;;;;;;;;;5083525;28;20364;-91
2021/06/29 17:15:24;;;;;;;7.97;7.28;;;;;;;;;;5084750;28;20411;-90
2021/06/29 17:17:57;;;;;;;7.63;6.93;;;;;;;;;;5080714;28;20435;-92
2021/06/29 17:20:23;;;;;;;9.23;7.40;;;;;;;;;;5084000;28;20398;-91
2021/06/29 17:22:49;;;;;;;8.93;5.00;;;;;;;;;;5094022;28;20809;-90
2021/06/29 17:25:18;;;;;;;8.63;4.70;;;;;;;;;;5094093;28;20377;-89
2021/06/29 17:27:44;;;;;;;8.15;4.35;;;;;;;;;;5085090;28;20500;-91
2021/06/29 17:30:11;;;;;;;7.47;5.00;;;;;;;;;;5073919;28;20398;-90
2021/06/29 17:32:38;;;;;;;5.60;5.10;;;;;;;;;;5083835;28;20479;-92
2021/06/29 17:35:04;;;;;;;6.18;4.78;;;;;;;;;;5077396;28;20868;-91
2021/06/29 17:37:30;;;;;;;7.05;5.47;;;;;;;;;;5082362;28;20462;-91
2021/06/29 17:39:57;;;;;;;7.65;5.68;;;;;;;;;;5083700;28;20376;-90
2021/06/29 17:42:26;;;;;;;9.40;6.15;;;;;;;;;;5084014;28;20361;-91
2021/06/29 17:44:52;;;;;;;6.80;6.15;;;;;;;;;;5083791;28;20512;-91
2021/06/29 17:47:21;;;;;;;9.10;6.50;;;;;;;;;;5081630;28;20461;-91
2021/06/29 17:49:47;;;;;;;7.93;6.43;;;;;;;;;;5084042;28;20415;-89
2021/06/29 17:52:14;;;;;;;7.40;6.35;;;;;;;;;;5083360;28;20378;-90
2021/06/29 17:54:40;;;;;;;6.93;6.20;;;;;;;;;;5083132;28;20377;-89
2021/06/29 17:57:06;;;;;;;8.93;6.82;;;;;;;;;;5083401;28;20381;-90
2021/06/29 17:59:32;;;;;;;7.07;6.37;;;;;;;;;;5083453;28;20381;-90
2021/06/29 18:01:58;;;;;;;7.18;6.45;;;;;;;;;;5082268;28;20402;-91
2021/06/29 18:04:24;;;;;;;7.53;5.93;;;;;;;;;;5082462;28;20887;-91
2021/06/29 18:06:52;;;;;;;9.18;6.30;;;;;;;;;;5079977;28;20384;-91
2021/06/29 18:09:19;;;;;;;6.65;5.72;;;;;;;;;;5079277;28;20917;-90
2021/06/29 18:11:54;;;;;;;5.20;4.70;;;;;;;;;;5080780;28;20419;-91
2021/06/29 18:14:22;;;;;;;5.85;5.35;;;;;;;;;;5085419;28;20928;-93
2021/06/29 18:16:49;;;;;;;5.53;5.03;;;;;;;;;;5082021;28;20373;-91
2021/06/29 18:19:17;;;;;;;6.28;4.80;;;;;;;;;;5076433;28;20402;-91
2021/06/29 18:21:44;;;;;;;5.40;4.90;;;;;;;;;;5081780;28;20377;-92
2021/06/29 18:24:11;;;;;;;5.10;4.70;;;;;;;;;;5083134;28;20719;-92
2021/06/29 18:26:38;;;;;;;7.40;4.82;;;;;;;;;;5079676;28;20388;-89
2021/06/29 18:29:04;;;;;;;4.82;4.43;;;;;;;;;;5081703;28;20382;-88
2021/06/29 18:31:30;;;;;;;4.93;4.43;;;;;;;;;;5080143;28;20404;-89
2021/06/29 18:33:59;;;;;;;8.20;4.97;;;;;;;;;;5082691;28;20365;-90
2021/06/29 18:36:26;;;;;;;5.55;4.43;;;;;;;;;;5081951;28;20913;-91
2021/06/29 18:38:52;;;;;;;5.10;4.60;;;;;;;;;;5082263;28;20487;-92
2021/06/29 18:41:20;;;;;;;5.03;4.50;;;;;;;;;;5080717;28;20739;-91
2021/06/29 18:43:46;;;;;;;4.97;4.47;;;;;;;;;;5082366;28;20381;-88
2021/06/29 18:46:12;;;;;;;5.70;4.70;;;;;;;;;;5076553;28;20374;-91
2021/06/29 18:48:38;;;;;;;5.70;4.50;;;;;;;;;;5081372;28;20890;-90
2021/06/29 18:51:04;;;;;;;5.10;4.60;;;;;;;;;;5079586;28;20449;-89
2021/06/29 18:53:34;;;;;;;4.80;4.40;;;;;;;;;;5074864;28;20384;-90
2021/06/29 18:56:01;;;;;;;5.40;4.88;;;;;;;;;;5071702;28;20729;-92
2021/06/29 18:58:27;;;;;;;6.00;5.10;;;;;;;;;;5071123;28;20417;-89
2021/06/29 19:00:53;;;;;;;5.47;4.97;;;;;;;;;;5071931;28;20425;-89
2021/06/29 19:03:19;;;;;;;5.37;4.87;;;;;;;;;;5075011;28;20388;-92
2021/06/29 19:05:49;;;;;;;5.18;4.68;;;;;;;;;;5092153;28;20415;-89
2021/06/29 19:08:15;;;;;;;5.80;4.93;;;;;;;;;;5092133;28;20467;-89
2021/06/29 19:10:42;;;;;;;5.45;4.68;;;;;;;;;;5091611;28;20870;-89
2021/06/29 19:13:09;;;;;;;5.35;4.85;;;;;;;;;;5075173;28;20397;-89
2021/06/29 19:15:35;;;;;;;5.10;4.60;;;;;;;;;;5075214;28;20438;-91
2021/06/29 19:18:03;;;;;;;4.97;4.43;;;;;;;;;;5070672;28;20895;-92
2021/06/29 19:20:29;;;;;;;6.80;4.57;;;;;;;;;;5072429;28;20468;-92
2021/06/29 19:22:57;;;;;;;5.37;4.70;;;;;;;;;;5071391;28;20406;-92
2021/06/29 19:25:23;;;;;;;6.78;4.90;;;;;;;;;;5076708;28;20384;-90
2021/06/29 19:27:49;;;;;;;5.60;4.60;;;;;;;;;;5074549;28;20385;-92
2021/06/29 19:30:19;;;;;;;5.28;4.78;;;;;;;;;;5070869;28;20401;-93
2021/06/29 19:32:46;;;;;;;5.03;4.60;;;;;;;;;;5070846;28;20366;-93
2021/06/29 19:35:17;;;;;;;7.25;5.20;;;;;;;;;;5073127;28;20394;-91
2021/06/29 19:37:46;;;;;;;5.40;4.88;;;;;;;;;;5074569;28;20901;-91
2021/06/29 19:40:14;;;;;;;5.35;4.90;;;;;;;;;;5072483;28;20484;-91
2021/06/29 19:42:40;;;;;;;6.70;5.22;;;;;;;;;;5073244;28;20389;-90
2021/06/29 19:45:07;;;;;;;5.93;4.93;;;;;;;;;;5075405;28;20384;-91
2021/06/29 19:47:36;;;;;;;5.50;5.10;;;;;;;;;;5073660;28;20385;-92
2021/06/29 19:50:12;;;;;;;6.15;5.63;;;;;;;;;;5078302;28;20544;-92
2021/06/29 19:52:39;;;;;;;7.00;6.03;;;;;;;;;;5107414;28;20487;-92
2021/06/29 19:55:07;;;;;;;6.30;5.68;;;;;;;;;;5091919;28;20373;-91
2021/06/29 19:57:33;;;;;;;6.50;5.90;;;;;;;;;;5077431;28;20409;-91
2021/06/29 19:59:59;;;;;;;6.00;5.43;;;;;;;;;;5097277;28;20380;-91
2021/06/29 20:02:28;;;;;;;6.40;5.80;;;;;;;;;;5092162;28;20380;-92
2021/06/29 20:04:54;;;;;;;5.93;5.43;;;;;;;;;;5086139;28;20404;-91
2021/06/29 20:07:23;;;;;;;6.93;6.22;;;;;;;;;;5083480;28;21081;-91
2021/06/29 20:09:56;;;;;;;7.32;6.63;;;;;;;;;;5086022;28;20392;-92
2021/06/29 20:15:54;;;;;;;7.10;6.50;;;;;;;;;;5099856;28;20786;-92
2021/06/29 20:18:26;;;;;;;6.70;6.10;;;;;;;;;;5102026;28;20418;-91
2021/06/29 20:20:52;;;;;;;6.60;5.93;;;;;;;;;;5085961;28;20405;-91
2021/06/29 20:23:19;;;;;;;6.57;6.07;;;;;;;;;;5082568;28;20489;-91
2021/06/29 20:25:48;;;;;;;6.17;5.73;;;;;;;;;;5076264;28;20903;-92
2021/06/29 20:28:17;;;;;;;6.47;5.97;;;;;;;;;;5077565;28;20494;-90
2021/06/29 20:30:43;;;;;;;7.00;6.35;;;;;;;;;;5076987;28;20390;-90
2021/06/29 20:33:34;;;;;;;7.15;6.45;;;;;;;;;;5077467;28;20426;-90
2021/06/29 20:36:06;;;;;;;7.47;6.50;;;;;;;;;;5083585;28;20390;-89
2021/06/29 20:38:42;;;;;;;7.22;6.63;;;;;;;;;;5092668;28;20905;-91
2021/06/29 20:41:20;;;;;;;7.32;6.72;;;;;;;;;;5077578;28;20390;-92
2021/06/29 20:43:46;;;;;;;7.55;6.95;;;;;;;;;;5083680;28;20366;-91
2021/06/29 20:46:13;;;;;;;7.55;6.85;;;;;;;;;;5079327;28;20703;-91
2021/06/29 20:48:42;;;;;;;7.20;6.60;;;;;;;;;;5078337;28;20388;-91
2021/06/29 20:51:08;;;;;;;7.68;7.07;;;;;;;;;;5079769;28;20372;-91